AirNav   Air Wisconsin Up To $57,000 Bonus
 
 1523 users online  

M34 Kentucky Dam State Park Airport
Calvert City, Kentucky, USA

GOING TO CALVERT CITY?


FAA INFORMATION EFFECTIVE 22 APRIL 2021

Location

FAA Identifier: M34
Lat/Long: 37-00-35.2460N 088-17-57.8502W
37-00.587433N 088-17.964170W
37.0097906,-88.2994028
(estimated)
Elevation: 350.8 ft. / 106.9 m (surveyed)
Variation: 03W (2020)
From city: 3 miles SE of CALVERT CITY, KY
Time zone: UTC -5 (UTC -6 during Standard Time)
Zip code: 42044

Airport Operations

Airport use: Open to the public
Activation date: 10/1948
Control tower: no
ARTCC: MEMPHIS CENTER
FSS: LOUISVILLE FLIGHT SERVICE STATION
NOTAMs facility: LOU (NOTAM-D service available)
Attendance: UNATNDD
Wind indicator: lighted
Segmented circle: yes
Lights: ACTVT REIL RWY 10 & 28; PAPI RWY 10 & 28; MIRL RWY 10/28 - CTAF.
Beacon: white-green (lighted land airport)
Operates sunset to sunrise.

Airport Communications

CTAF/UNICOM: 123.0
WX AWOS-3 at M25 (20 nm SW): 120.625 (270-247-2094)

Nearby radio navigation aids

VOR radial/distance  VOR name  Freq  Var
CNGr087/25.8CUNNINGHAM VOR/DME113.1003E

Airport Services

Fuel available: 100LL JET-A
Parking: tiedowns
Airframe service: NONE
Powerplant service: NONE
Bottled oxygen: NONE
Bulk oxygen: NONE

Runway Information

Runway 10/28

Dimensions: 4005 x 100 ft. / 1221 x 30 m
Surface: asphalt, in fair condition
Weight bearing capacity: 
Single wheel: 12.5
Runway edge lights: medium intensity
RUNWAY 10  RUNWAY 28
Latitude: 37-00.640533N37-00.534333N
Longitude: 088-18.370300W088-17.558040W
Elevation: 348.6 ft.350.7 ft.
Traffic pattern: leftleft
Markings: nonprecision, in good conditionnonprecision, in good condition
Visual slope indicator: 2-light PAPI on left (4.00 degrees glide path)2-light PAPI on left (4.00 degrees glide path)
Runway end identifier lights: yesyes
Touchdown point: yes, no lightsyes, no lights
Obstructions: none21 ft. trees, 282 ft. from runway, 129 ft. right of centerline, 3:1 slope to clear

Airport Ownership and Management from official FAA records

Ownership: Publicly-owned
Owner: CALVERT CITY KENTUCKY
2 HUDSON HOLLOW UNIT 1
FRANKFORT, KY 40601
Phone (502) 892-3367
Manager: JOHN WARD
P.O. BOX 36
CALVERT CITY, KY 42029
Phone (270) 395-7138

Airport Operational Statistics

Aircraft based on the field: 12
Single engine airplanes: 12
    
Aircraft operations: avg 44/day *
69% transient general aviation
19% military
9% local general aviation
3% air taxi
* for 12-month period ending 18 October 2019

Additional Remarks

DEER & GEESE ON & INVOF ARPT.
LODGE T/R - 270-362-4271.
FOR CD CTC MEMPHIS ARTCC AT 901-368-8453/8449.

Instrument Procedures

There are no published instrument procedures at M34.

Some nearby airports with instrument procedures:

M25 - Mayfield Graves County Airport (20 nm SW)
KCEY - Kyle-Oakley Field Airport (21 nm S)
5M9 - Marion-Crittenden County James C Johnson Regional Airport (22 nm NE)
2M0 - Princeton-Caldwell County Airport (22 nm E)
KPAH - Barkley Regional Airport (23 nm W)
 
Loc | Ops | Rwys | IFR | FBO | Links
Com | Nav | Svcs | Stats | Notes
Area around M34 (Kentucky Dam State Park Airport)
 
Road maps at: MapQuest Bing Google
 
Aerial photo
WARNING: Photo may not be current or correct
Aerial photo of M34 (Kentucky Dam State Park Airport)
Photo by Brandon Tanner
Photo taken 02-Apr-2015
looking east.

Do you have a better or more recent aerial photo of Kentucky Dam State Park Airport that you would like to share? If so, please send us your photo.

 
Sectional chart

 
Airport distance calculator
Flying to Kentucky Dam State Park Airport? Find the distance to fly.

From to M34

Sunrise and sunset
Times for 18-May-2021
 Local
(UTC-5)
 Zulu
(UTC)
Morning civil twilight05:1410:14
Sunrise05:4410:44
Sunset19:5600:56
Evening civil twilight20:2501:25

Current date and time
Zulu (UTC)  18-May-2021 14:16:24
Local (UTC-5)  18-May-2021 09:16:24
 
METAR
KM25 
20nm SW 
181335Z AUTO 00000KT 5SM BKN032 BKN041 OVC050 17/16 A3016 RMK AO2 P0004 PWINO
KCEY 
21nm S 
181355Z AUTO 12003KT 9SM SCT042 BKN070 17/17 A3017 RMK AO1 P0003
K5M9 
22nm NE 
181355Z AUTO 14005KT 10SM SCT037 BKN045 OVC110 17/15 A3018 RMK AO2 T01700153
KPAH 
23nm W 
181359Z 12010KT 3SM -RA BR FEW009 BKN055 OVC085 18/16 A3014 RMK AO2 P0001 T01780156
TAF
KPAH 
23nm W 
180915Z 1809/1906 16008G15KT 6SM -SHRA OVC050 TEMPO 1809/1811 5SM SHRA BR FM181300 14008G18KT 6SM -SHRA BKN030 FM181400 15010G19KT 6SM -SHRA BR BKN027 FM182000 16012G23KT P6SM -SHRA BKN050 FM182300 14008KT P6SM VCSH BKN050 FM190000 14007KT P6SM BKN050
NOTAMs
Click for the latest NOTAMs
NOTAMs are issued by the DoD/FAA and will open in a separate window not controlled by AirNav.

 

 
 

FBO, Fuel Providers, and Aircraft Ground Support

  
 Business Name 
 
 Contact 
 
 Services / Description 
 
Fuel Prices
 
Comments
  
Kentucky Dam State Park Airport 270-395-7138
[web site]
[email]

Like us on facebook See us on instagram Follow us on twitter
Airport management, Aviation fuel, Aircraft parking (ramp or tiedown), Hangar leasing / sales, Passenger terminal and lounge, Catering, ...

More info about Kentucky Dam State Park Airport
100LL Jet A
SS $4.40 $3.40 
 Updated 12-Mar-2021
 
   1 read write
SS=Self service
Update Fuel Prices
 

Would you like to see your business listed on this page?

 If your business provides an interesting product or service to pilots, flight crews, aircraft, or users of the Kentucky Dam State Park Airport, you should consider listing it here.  To start the listing process, click on the button below
 
Add a business
 

Other Pages about Kentucky Dam State Park Airport

Update a link
 
Copyright © AirNav, LLC. All rights reserved. Privacy Policy  Contact